Time;durP1;ratioP1;P1;durP2;ratioP2;P2;SDS_P1;SDS_P2;PMS_P1;PMS_P2;Temp;Humidity;BMP_temperature;BMP_pressure;BME280_temperature;BME280_humidity;BME280_pressure;Samples;Min_cycle;Max_cycle;Signal;HPM_P1;HPM_P2
2022/08/02 00:01:49;;;;;;;9.05;8.15;;;;;;;16.74;100.00;100144.81;1705928;84;21104;-43
2022/08/02 00:04:16;;;;;;;10.08;7.85;;;;;;;16.73;100.00;100141.37;1705897;82;21499;-42
2022/08/02 00:06:43;;;;;;;9.03;7.85;;;;;;;16.73;100.00;100130.05;1716689;82;20992;-42
2022/08/02 00:09:10;;;;;;;8.58;7.83;;;;;;;16.73;100.00;100123.08;1735320;82;21172;-43
2022/08/02 00:11:37;;;;;;;8.05;7.45;;;;;;;16.74;100.00;100118.67;1735343;82;20988;-43
2022/08/02 00:14:04;;;;;;;8.55;7.58;;;;;;;16.74;100.00;100119.53;1717814;81;21112;-43
2022/08/02 00:16:31;;;;;;;8.93;8.03;;;;;;;16.76;100.00;100116.83;1713571;82;20976;-43
2022/08/02 00:18:58;;;;;;;8.90;8.00;;;;;;;16.77;100.00;100115.45;1735104;82;21376;-43
2022/08/02 00:21:25;;;;;;;11.20;8.18;;;;;;;16.78;100.00;100124.13;1714500;82;21490;-42
2022/08/02 00:23:52;;;;;;;11.48;8.18;;;;;;;16.77;100.00;100118.52;1735208;82;21321;-42
2022/08/02 00:26:20;;;;;;;11.08;8.25;;;;;;;16.76;100.00;100108.55;1737101;81;21225;-43
2022/08/02 00:28:47;;;;;;;12.43;8.28;;;;;;;16.77;100.00;100102.39;1743325;82;20882;-43
2022/08/02 00:31:13;;;;;;;9.65;8.70;;;;;;;16.78;100.00;100103.22;1743353;82;21007;-42
2022/08/02 00:33:40;;;;;;;14.07;8.45;;;;;;;16.79;100.00;100104.91;1743354;82;21502;-43
2022/08/02 00:36:07;;;;;;;9.90;8.25;;;;;;;16.79;100.00;100100.55;1723773;82;21051;-43
2022/08/02 00:38:34;;;;;;;12.33;8.60;;;;;;;16.79;100.00;100104.47;1713570;83;21376;-43
2022/08/02 00:41:01;;;;;;;8.70;7.90;;;;;;;16.80;100.00;100106.63;1714354;82;20980;-42
2022/08/02 00:43:28;;;;;;;8.90;8.10;;;;;;;16.83;100.00;100105.17;1743458;81;20945;-42
2022/08/02 00:45:54;;;;;;;9.15;8.40;;;;;;;16.83;100.00;100092.55;1738758;82;20972;-42
2022/08/02 00:48:21;;;;;;;9.35;7.80;;;;;;;16.83;100.00;100089.48;1712228;83;21020;-43
2022/08/02 00:50:48;;;;;;;10.00;7.40;;;;;;;16.83;100.00;100082.95;1712090;83;22150;-43
2022/08/02 00:53:15;;;;;;;7.65;6.95;;;;;;;16.81;100.00;100080.41;1713648;82;21019;-43
2022/08/02 00:55:43;;;;;;;8.20;7.40;;;;;;;16.83;100.00;100087.32;1713676;83;20924;-43
2022/08/02 00:58:09;;;;;;;7.67;6.97;;;;;;;16.82;100.00;100083.88;1713615;83;20995;-43
2022/08/02 01:00:36;;;;;;;8.25;7.42;;;;;;;16.81;100.00;100086.94;1714260;82;21031;-42
2022/08/02 01:03:03;;;;;;;9.45;7.17;;;;;;;16.80;100.00;100077.41;1713915;82;21155;-42
2022/08/02 01:05:31;;;;;;;8.13;7.33;;;;;;;16.81;100.00;100076.48;1740368;82;21011;-43
2022/08/02 01:07:58;;;;;;;8.83;6.65;;;;;;;16.83;100.00;100082.09;1743212;82;21407;-43
2022/08/02 01:10:25;;;;;;;8.23;7.33;;;;;;;16.81;100.00;100071.26;1714073;82;21005;-43
2022/08/02 01:12:52;;;;;;;10.28;7.45;;;;;;;16.81;100.00;100073.04;1742511;82;21007;-43
2022/08/02 01:15:19;;;;;;;8.70;7.80;;;;;;;16.82;100.00;100079.95;1743348;82;21248;-43
2022/08/02 01:18:06;;;;;;;9.08;7.17;;;;;;;16.80;100.00;100085.73;1743419;82;21471;-43
2022/08/02 01:20:57;;;;;;;8.68;7.90;;;;;;;16.79;100.00;100090.53;1743229;82;21282;-42
2022/08/02 01:24:06;;;;;;;8.48;7.67;;;;;;;16.77;100.00;100093.69;1742184;82;21023;-43
2022/08/02 01:26:58;;;;;;;9.75;7.80;;;;;;;16.74;100.00;100091.23;1740347;81;21495;-43
2022/08/02 01:29:29;;;;;;;8.88;8.05;;;;;;;16.71;100.00;100097.92;1734371;82;20997;-43
2022/08/02 01:32:21;;;;;;;9.28;8.00;;;;;;;16.68;100.00;100096.33;1714995;82;20964;-43
2022/08/02 01:35:01;;;;;;;12.80;8.58;;;;;;;16.66;100.00;100087.70;1735057;82;21011;-42
2022/08/02 01:37:33;;;;;;;8.75;7.95;;;;;;;16.62;100.00;100093.55;1735073;82;21551;-42
2022/08/02 01:40:13;;;;;;;12.03;8.13;;;;;;;16.61;100.00;100087.95;1713965;82;20984;-43
2022/08/02 01:42:45;;;;;;;10.70;8.98;;;;;;;16.58;100.00;100082.02;1714840;82;22406;-42
2022/08/02 01:45:12;;;;;;;9.48;8.23;;;;;;;16.55;100.00;100084.34;1705684;83;20964;-42
2022/08/02 01:47:39;;;;;;;10.78;8.78;;;;;;;16.52;100.00;100081.84;1705900;84;21063;-42
2022/08/02 01:50:07;;;;;;;14.78;8.53;;;;;;;16.49;100.00;100078.08;1705828;82;20988;-42
2022/08/02 01:52:37;;;;;;;11.83;8.95;;;;;;;16.47;100.00;100078.63;1706206;82;21595;-42
2022/08/02 01:55:12;;;;;;;10.23;8.58;;;;;;;16.45;100.00;100075.23;1686260;84;21197;-43
2022/08/02 01:57:48;;;;;;;11.40;8.93;;;;;;;16.42;100.00;100072.34;1705927;84;21007;-42
2022/08/02 02:00:15;;;;;;;9.25;8.40;;;;;;;16.40;100.00;100071.54;1685633;84;21585;-42
2022/08/02 02:02:46;;;;;;;9.58;8.55;;;;;;;16.40;100.00;100066.79;1705890;82;20979;-42
2022/08/02 02:05:15;;;;;;;9.25;8.55;;;;;;;16.40;100.00;100066.79;1706004;84;21023;-42
2022/08/02 02:07:43;;;;;;;8.90;8.05;;;;;;;16.38;100.00;100061.63;1705848;83;21765;-43
2022/08/02 02:10:14;;;;;;;10.20;8.53;;;;;;;16.38;100.00;100064.24;1685662;84;21035;-42
2022/08/02 02:12:43;;;;;;;9.85;8.23;;;;;;;16.37;100.00;100065.16;1713176;82;21495;-42
2022/08/02 02:15:11;;;;;;;10.10;9.10;;;;;;;16.37;100.00;100060.80;1735012;82;20996;-42
2022/08/02 02:17:40;;;;;;;11.15;9.65;;;;;;;16.39;100.00;100062.02;1714445;82;21522;-42
2022/08/02 02:20:11;;;;;;;10.63;9.13;;;;;;;16.39;100.00;100069.84;1735230;82;21788;-42
2022/08/02 02:22:38;;;;;;;10.10;8.73;;;;;;;16.38;100.00;100064.24;1734179;82;20902;-42
2022/08/02 02:25:08;;;;;;;9.85;8.85;;;;;;;16.38;100.00;100069.02;1735089;82;20905;-42
2022/08/02 02:27:36;;;;;;;9.43;8.55;;;;;;;16.38;100.00;100070.33;1743717;81;21016;-42
2022/08/02 02:30:05;;;;;;;8.95;8.05;;;;;;;16.38;100.00;100074.24;1747740;82;20963;-42
2022/08/02 02:32:32;;;;;;;10.18;8.55;;;;;;;16.37;100.00;100077.78;1743660;82;21080;-42
2022/08/02 02:34:59;;;;;;;12.00;8.03;;;;;;;16.36;100.00;100085.23;1719340;83;21023;-42
2022/08/02 02:37:27;;;;;;;9.53;8.65;;;;;;;16.35;100.00;100070.92;1719226;83;20983;-42
2022/08/02 02:39:54;;;;;;;11.43;8.03;;;;;;;16.34;100.00;100071.84;1719342;83;21008;-42
2022/08/02 02:42:24;;;;;;;9.35;8.53;;;;;;;16.34;100.00;100076.62;1719346;82;20943;-42
2022/08/02 02:44:51;;;;;;;9.30;8.33;;;;;;;16.34;100.00;100070.54;1719244;83;21923;-42
2022/08/02 02:47:19;;;;;;;9.58;8.75;;;;;;;16.34;100.00;100058.79;1692896;83;21544;-42
2022/08/02 02:49:48;;;;;;;9.63;8.65;;;;;;;16.33;100.00;100050.13;1719178;83;21447;-42
2022/08/02 02:52:16;;;;;;;12.68;8.63;;;;;;;16.34;100.00;100040.50;1701570;82;20980;-42
2022/08/02 02:54:44;;;;;;;8.58;7.83;;;;;;;16.35;100.00;100030.44;1749037;82;20975;-43
2022/08/02 02:57:11;;;;;;;9.35;8.45;;;;;;;16.36;100.00;100022.99;1749100;80;21156;-42
2022/08/02 02:59:38;;;;;;;9.15;8.25;;;;;;;16.40;100.00;100026.31;1748851;81;20936;-42
2022/08/02 03:02:05;;;;;;;9.38;8.45;;;;;;;16.42;100.00;100025.77;1743185;82;21007;-42
2022/08/02 03:04:33;;;;;;;8.43;7.65;;;;;;;16.46;100.00;100029.91;1719282;83;21007;-42
2022/08/02 03:07:01;;;;;;;9.68;7.95;;;;;;;16.48;100.00;100032.84;1719364;83;21031;-42
2022/08/02 03:09:28;;;;;;;9.70;8.80;;;;;;;16.51;100.00;100039.66;1719267;83;21269;-42
2022/08/02 03:11:55;;;;;;;13.20;8.90;;;;;;;16.55;100.00;100048.20;1730713;82;21514;-43
2022/08/02 03:14:23;;;;;;;8.35;7.65;;;;;;;16.59;100.00;100050.59;1721053;82;20944;-42
2022/08/02 03:16:51;;;;;;;9.98;8.13;;;;;;;16.62;100.00;100057.42;1749190;82;21015;-42
2022/08/02 03:19:19;;;;;;;8.48;7.60;;;;;;;16.66;100.00;100066.79;1749387;81;21566;-42
2022/08/02 03:21:47;;;;;;;10.48;7.97;;;;;;;16.70;100.00;100070.97;1721079;82;21053;-42
2022/08/02 03:24:14;;;;;;;9.70;8.70;;;;;;;16.75;100.00;100072.02;1748952;82;21512;-42
2022/08/02 03:26:41;;;;;;;9.23;8.10;;;;;;;16.79;100.00;100067.02;1749073;80;21035;-42
2022/08/02 03:29:08;;;;;;;9.30;8.30;;;;;;;16.81;100.00;100056.88;1748890;82;20948;-42
2022/08/02 03:31:36;;;;;;;8.80;7.90;;;;;;;16.82;100.00;100051.20;1721534;82;20904;-42
2022/08/02 03:34:03;;;;;;;9.58;8.33;;;;;;;16.86;100.00;100057.10;1728524;82;21211;-42
2022/08/02 03:36:32;;;;;;;10.25;9.15;;;;;;;16.86;100.00;100084.10;1746243;81;20960;-42
2022/08/02 03:38:59;;;;;;;9.38;8.05;;;;;;;16.90;100.00;100098.70;1749369;82;20924;-42
2022/08/02 03:42:39;;;;;;;9.70;8.78;;;;;;;17.02;100.00;100086.80;1797615;79;22701;-43
2022/08/02 03:45:09;;;;;;;9.53;8.63;;;;;;;17.04;100.00;100084.09;1757451;81;21514;-43
2022/08/02 03:47:37;;;;;;;9.83;8.75;;;;;;;17.12;100.00;100087.63;1775725;80;21979;-43
2022/08/02 03:50:07;;;;;;;9.75;8.85;;;;;;;17.17;100.00;100079.94;1783510;80;21465;-43
2022/08/02 03:52:35;;;;;;;14.83;9.18;;;;;;;17.26;100.00;100087.77;1783491;80;20931;-43
2022/08/02 03:55:03;;;;;;;9.60;8.75;;;;;;;17.37;100.00;100091.13;1782672;80;21073;-42
2022/08/02 03:57:30;;;;;;;10.68;8.85;;;;;;;17.49;100.00;100091.77;1782294;80;21112;-44
2022/08/02 03:59:57;;;;;;;11.88;8.55;;;;;;;17.61;100.00;100105.14;1727149;83;21252;-43
2022/08/02 04:02:25;;;;;;;10.75;8.00;;;;;;;17.72;100.00;100118.48;1727168;83;20944;-43
2022/08/02 04:04:52;;;;;;;9.33;7.97;;;;;;;17.85;100.00;100127.00;1727218;83;20920;-43
2022/08/02 04:07:19;;;;;;;9.40;8.23;;;;;;;17.95;100.00;100132.11;1727271;83;20932;-43
2022/08/02 04:09:46;;;;;;;9.80;7.87;;;;;;;18.07;100.00;100125.38;1747411;80;21006;-43
2022/08/02 04:12:13;;;;;;;8.15;7.45;;;;;;;18.17;100.00;100130.96;1758795;80;21758;-43
2022/08/02 04:14:40;;;;;;;8.90;8.15;;;;;;;18.24;100.00;100123.99;1772227;80;20943;-42
2022/08/02 04:17:09;;;;;;;9.23;7.55;;;;;;;18.36;100.00;100118.98;1752424;81;21006;-43
2022/08/02 04:19:46;;;;;;;8.85;7.08;;;;;;;18.50;100.00;100120.36;1751083;81;21533;-43
2022/08/02 04:22:22;;;;;;;7.75;6.85;;;;;;;18.64;100.00;100114.33;1752416;81;21037;-43
2022/08/02 04:24:51;;;;;;;10.88;7.80;;;;;;;18.76;100.00;100114.53;1752496;81;21096;-44
2022/08/02 04:27:17;;;;;;;10.15;6.80;;;;;;;18.88;100.00;100111.22;1752273;81;21548;-43
2022/08/02 04:29:45;;;;;;;6.95;6.28;;;;;;;19.03;100.00;100111.25;1750398;80;20908;-43
2022/08/02 04:32:13;;;;;;;12.47;6.78;;;;;;;19.15;100.00;100114.48;1731563;81;21365;-43
2022/08/02 04:34:40;;;;;;;9.15;7.22;;;;;;;19.28;100.00;100106.70;1729563;81;21067;-43
2022/08/02 04:37:06;;;;;;;8.73;7.67;;;;;;;19.42;100.00;100103.70;1727234;82;21231;-43
2022/08/02 04:39:34;;;;;;;8.88;7.10;;;;;;;19.52;100.00;100106.97;1727074;83;21016;-43
2022/08/02 04:42:01;;;;;;;9.63;7.40;;;;;;;19.65;100.00;100111.48;1724938;82;21087;-43
2022/08/02 04:44:27;;;;;;;8.18;6.67;;;;;;;19.83;100.00;100106.86;1735895;81;21054;-43
2022/08/02 04:46:55;;;;;;;9.18;6.83;;;;;;;20.02;100.00;100114.44;1739680;82;21644;-43
2022/08/02 04:49:22;;;;;;;10.88;7.35;;;;;;;20.17;100.00;100115.73;1721842;81;21145;-42
2022/08/02 04:51:49;;;;;;;12.20;7.37;;;;;;;20.32;100.00;100119.97;1752282;81;21579;-42
2022/08/02 04:54:16;;;;;;;9.08;6.87;;;;;;;20.50;100.00;100118.41;1738621;82;20960;-43
2022/08/02 04:56:43;;;;;;;10.23;7.67;;;;;;;20.63;100.00;100108.78;1738933;82;20952;-42
2022/08/02 04:59:11;;;;;;;11.68;6.80;;;;;;;20.79;100.00;100109.06;1728336;82;20983;-42
2022/08/02 05:01:38;;;;;;;8.03;7.35;;;;;;;20.98;100.00;100104.77;1707871;83;21897;-43
2022/08/02 05:04:05;;;;;;;9.53;6.95;;;;;;;21.14;100.00;100107.19;1710605;82;20993;-43
2022/08/02 05:06:32;;;;;;;8.38;6.87;;;;;;;21.27;100.00;100102.38;1736574;82;20948;-43
2022/08/02 05:08:59;;;;;;;13.30;7.83;;;;;;;21.39;100.00;100097.60;1715290;82;21015;-43
2022/08/02 05:11:26;;;;;;;8.85;7.22;;;;;;;21.50;100.00;100099.48;1714059;82;20984;-44
2022/08/02 05:13:53;;;;;;;9.10;6.70;;;;;;;21.51;100.00;100096.73;1726349;82;21228;-43
2022/08/02 05:16:20;;;;;;;10.30;7.15;;;;;;;21.55;100.00;100098.68;1713918;82;20964;-42
2022/08/02 05:18:49;;;;;;;9.28;7.15;;;;;;;21.59;100.00;100090.06;1714088;82;20925;-44
2022/08/02 05:21:16;;;;;;;9.53;7.28;;;;;;;21.61;100.00;100085.56;1714032;82;20936;-43
2022/08/02 05:23:43;;;;;;;7.33;6.53;;;;;;;21.72;100.00;100077.76;1704059;82;21034;-43
2022/08/02 05:26:10;;;;;;;8.43;7.62;;;;;;;21.88;100.00;100083.26;1738591;82;22019;-43
2022/08/02 05:28:37;;;;;;;7.67;6.92;;;;;;;22.13;100.00;100078.84;1738921;82;20979;-43
2022/08/02 05:31:04;;;;;;;7.87;7.00;;;;;;;22.23;96.91;100077.20;1738934;82;21046;-43
2022/08/02 05:33:31;;;;;;;11.33;7.00;;;;;;;22.24;98.30;100081.52;1718630;82;20995;-43
2022/08/02 05:35:58;;;;;;;9.35;7.05;;;;;;;22.54;97.54;100084.17;1726149;82;21315;-43
2022/08/02 05:38:27;;;;;;;13.62;7.58;;;;;;;22.66;95.40;100085.05;1708014;84;21202;-43
2022/08/02 05:40:55;;;;;;;9.35;7.15;;;;;;;22.64;95.24;100083.00;1712184;82;21030;-43
2022/08/02 05:43:23;;;;;;;12.50;8.13;;;;;;;22.70;94.63;100092.27;1709087;83;20981;-43
2022/08/02 05:45:52;;;;;;;10.00;7.67;;;;;;;22.69;93.24;100101.95;1705733;84;21019;-43
2022/08/02 05:48:19;;;;;;;9.00;8.00;;;;;;;22.71;93.65;100111.91;1691156;83;21647;-43
2022/08/02 05:50:49;;;;;;;10.23;7.78;;;;;;;22.76;93.15;100108.47;1689373;84;22139;-43
2022/08/02 05:53:34;;;;;;;11.78;7.35;;;;;;;22.79;92.60;100106.06;1689324;84;20967;-43
2022/08/02 05:56:31;;;;;;;7.40;6.75;;;;;;;22.77;92.60;100107.98;1677901;85;21102;-43
2022/08/02 05:59:26;;;;;;;9.53;6.92;;;;;;;22.60;91.95;100110.08;1688847;83;21730;-43
2022/08/02 06:01:57;;;;;;;;;;;;;;;22.03;93.39;100108.97;1706139;83;21053;-43
2022/08/02 06:04:29;;;;;;;7.58;6.95;;;;;;;21.75;95.29;100103.05;1695883;83;22354;-43
2022/08/02 06:06:57;;;;;;;8.45;7.65;;;;;;;21.65;96.49;100098.91;1707290;83;20963;-43
2022/08/02 06:09:24;;;;;;;9.73;7.40;;;;;;;21.48;97.16;100098.75;1670583;84;20947;-44
2022/08/02 06:11:52;;;;;;;10.48;8.13;;;;;;;21.36;97.88;100100.45;1638269;87;21033;-43
2022/08/02 06:14:19;;;;;;;10.08;8.55;;;;;;;21.33;98.31;100091.42;1653359;85;21028;-43
2022/08/02 06:16:46;;;;;;;9.33;7.92;;;;;;;21.33;98.65;100090.11;1662426;85;21070;-44
2022/08/02 06:19:13;;;;;;;9.10;7.87;;;;;;;21.41;97.74;100094.39;1688859;84;20940;-44
2022/08/02 06:21:41;;;;;;;8.40;7.70;;;;;;;21.45;98.25;100093.67;1662747;85;21062;-43
2022/08/02 06:24:09;;;;;;;8.80;7.87;;;;;;;21.60;98.32;100102.28;1667475;85;21016;-43
2022/08/02 06:26:36;;;;;;;9.60;8.00;;;;;;;21.75;97.41;100105.19;1714411;83;20991;-43
2022/08/02 06:29:03;;;;;;;11.85;8.15;;;;;;;21.87;96.94;100114.02;1716923;82;21986;-43
2022/08/02 06:31:30;;;;;;;11.48;7.22;;;;;;;22.04;96.68;100106.20;1710923;82;21523;-43
2022/08/02 06:33:57;;;;;;;8.00;7.22;;;;;;;22.18;95.31;100102.56;1691312;82;20935;-43
2022/08/02 06:36:44;;;;;;;8.20;7.37;;;;;;;22.30;94.24;100095.55;1689410;85;20951;-43
2022/08/02 06:39:22;;;;;;;8.43;7.62;;;;;;;22.38;93.72;100094.53;1690234;84;21003;-43
2022/08/02 06:41:49;;;;;;;9.90;7.83;;;;;;;22.57;92.80;100098.44;1701107;83;21096;-42
2022/08/02 06:44:17;;;;;;;8.33;7.45;;;;;;;22.77;91.23;100094.79;1714348;82;21007;-43
2022/08/02 06:46:44;;;;;;;10.13;7.33;;;;;;;23.00;90.83;100098.80;1656700;85;21003;-44
2022/08/02 06:49:11;;;;;;;8.73;7.12;;;;;;;23.39;91.11;100096.71;1722047;82;21489;-43
2022/08/02 06:51:38;;;;;;;10.78;7.95;;;;;;;23.80;87.86;100095.70;1722620;82;21051;-43
2022/08/02 06:54:05;;;;;;;10.40;8.03;;;;;;;24.13;86.56;100087.86;1719220;82;21242;-42
2022/08/02 06:56:32;;;;;;;11.00;7.42;;;;;;;24.28;82.69;100087.90;1718233;82;21029;-43
2022/08/02 06:58:59;;;;;;;12.30;7.85;;;;;;;24.36;83.49;100092.56;1719218;83;21021;-43
2022/08/02 07:01:25;;;;;;;10.80;7.60;;;;;;;24.64;83.27;100083.18;1718702;83;22216;-43
2022/08/02 07:03:53;;;;;;;8.25;6.90;;;;;;;24.93;82.19;100089.16;1732311;82;20987;-43
2022/08/02 07:06:19;;;;;;;8.20;7.40;;;;;;;25.28;81.67;100092.88;1733571;82;21291;-44
2022/08/02 07:08:46;;;;;;;7.53;7.00;;;;;;;25.54;80.31;100094.13;1712722;82;21102;-44
2022/08/02 07:11:13;;;;;;;12.43;7.15;;;;;;;25.79;79.23;100090.63;1720890;82;21055;-43
2022/08/02 07:13:41;;;;;;;8.28;7.40;;;;;;;25.98;78.55;100091.64;1720241;82;21042;-43
2022/08/02 07:16:08;;;;;;;8.40;7.10;;;;;;;26.16;76.05;100086.52;1722437;82;20947;-43
2022/08/02 07:18:35;;;;;;;8.15;7.45;;;;;;;26.15;73.36;100097.25;1724268;82;21245;-43
2022/08/02 07:21:07;;;;;;;8.28;7.47;;;;;;;26.02;73.73;100100.14;1717290;82;21021;-44
2022/08/02 07:23:33;;;;;;;7.62;7.03;;;;;;;26.08;73.75;100104.41;1723474;82;20988;-43
2022/08/02 07:26:01;;;;;;;8.93;7.05;;;;;;;26.09;72.09;100102.11;1733952;82;20971;-44
2022/08/02 07:28:30;;;;;;;7.65;6.80;;;;;;;25.80;73.03;100102.91;1713200;82;21269;-43
2022/08/02 07:30:57;;;;;;;8.00;7.30;;;;;;;25.71;74.07;100105.05;1715051;82;21266;-44
2022/08/02 07:33:26;;;;;;;7.90;7.10;;;;;;;25.70;73.57;100109.15;1677247;85;21114;-44
2022/08/02 07:35:53;;;;;;;12.03;8.23;;;;;;;25.65;73.71;100104.28;1675622;83;21010;-43
2022/08/02 07:38:21;;;;;;;10.10;6.60;;;;;;;25.67;73.50;100107.12;1716348;82;21482;-43
2022/08/02 07:40:48;;;;;;;8.40;7.00;;;;;;;25.44;73.85;100104.30;1717736;82;21077;-44
2022/08/02 07:43:16;;;;;;;14.65;8.58;;;;;;;25.32;74.07;100108.37;1708989;83;21262;-44
2022/08/02 07:45:42;;;;;;;10.68;7.47;;;;;;;25.25;74.34;100110.70;1700860;83;20999;-43
2022/08/02 07:48:10;;;;;;;8.58;7.03;;;;;;;25.37;75.34;100118.08;1728250;81;21020;-43
2022/08/02 07:50:38;;;;;;;10.58;7.95;;;;;;;25.52;75.81;100121.73;1735257;81;20991;-43
2022/08/02 07:53:05;;;;;;;9.50;8.60;;;;;;;25.60;74.81;100124.55;1719344;82;21027;-44
2022/08/02 07:55:32;;;;;;;9.20;8.23;;;;;;;25.49;73.41;100121.98;1722234;83;21962;-44
2022/08/02 07:57:59;;;;;;;10.90;8.60;;;;;;;25.63;75.54;100122.09;1722002;83;21592;-43
2022/08/02 08:00:26;;;;;;;8.55;7.75;;;;;;;25.82;72.17;100122.16;1722046;83;21520;-44
2022/08/02 08:02:52;;;;;;;8.85;8.03;;;;;;;25.92;72.32;100120.03;1722137;83;20927;-44
2022/08/02 08:05:19;;;;;;;10.23;8.30;;;;;;;25.82;74.51;100116.03;1722192;83;21014;-45
2022/08/02 08:07:47;;;;;;;8.65;7.80;;;;;;;25.64;74.23;100113.17;1695907;83;21302;-45
2022/08/02 08:10:14;;;;;;;14.85;8.15;;;;;;;25.43;74.34;100114.06;1722602;83;20915;-44
2022/08/02 08:12:41;;;;;;;15.55;7.58;;;;;;;25.43;74.69;100120.69;1722809;83;21006;-43
2022/08/02 08:15:09;;;;;;;17.50;7.35;;;;;;;25.35;76.57;100116.05;1722688;82;21565;-43
2022/08/02 08:17:37;;;;;;;13.43;7.87;;;;;;;25.49;78.31;100116.20;1722914;83;21482;-43
2022/08/02 08:20:06;;;;;;;19.52;7.45;;;;;;;25.77;77.48;100114.28;1722721;83;21061;-44
2022/08/02 08:22:33;;;;;;;28.32;8.38;;;;;;;26.03;74.02;100118.58;1722762;83;20959;-43
2022/08/02 08:25:00;;;;;;;17.55;7.65;;;;;;;26.16;75.01;100117.02;1722709;83;20888;-43
2022/08/02 08:27:27;;;;;;;18.98;8.20;;;;;;;26.42;73.25;100115.14;1722785;83;20944;-43
2022/08/02 08:29:55;;;;;;;8.58;7.25;;;;;;;26.61;73.45;100116.94;1723056;83;20943;-43
2022/08/02 08:32:22;;;;;;;9.30;6.72;;;;;;;26.84;71.39;100111.32;1723052;83;21110;-43
2022/08/02 08:34:50;;;;;;;14.63;7.83;;;;;;;26.92;68.92;100110.64;1722972;83;21026;-43
2022/08/02 08:37:17;;;;;;;16.50;7.47;;;;;;;26.92;69.69;100119.94;1722813;83;21049;-43
2022/08/02 08:39:46;;;;;;;7.05;6.33;;;;;;;27.00;70.46;100118.72;1722877;83;20932;-44
2022/08/02 08:42:13;;;;;;;7.05;6.37;;;;;;;27.31;67.96;100121.64;1721524;83;21039;-43
2022/08/02 08:44:40;;;;;;;21.85;8.28;;;;;;;27.37;66.67;100125.03;1717618;83;21143;-43
2022/08/02 08:47:07;;;;;;;21.25;7.62;;;;;;;27.21;64.00;100121.19;1717349;83;20940;-43
2022/08/02 08:49:41;;;;;;;12.68;7.03;;;;;;;27.10;66.02;100122.68;1717498;82;20999;-43
2022/08/02 08:52:08;;;;;;;7.17;6.33;;;;;;;27.25;68.50;100125.23;1717398;83;20987;-43
2022/08/02 08:54:35;;;;;;;12.63;6.60;;;;;;;27.74;69.31;100121.55;1665323;83;20975;-43
2022/08/02 08:57:05;;;;;;;7.58;6.05;;;;;;;28.29;67.10;100120.28;1717597;83;21145;-43
2022/08/02 08:59:35;;;;;;;9.35;6.10;;;;;;;28.66;63.33;100118.77;1717360;83;21413;-43
2022/08/02 09:02:02;;;;;;;18.80;6.50;;;;;;;28.62;58.93;100117.91;1717518;83;20936;-43
2022/08/02 09:04:29;;;;;;;12.18;6.90;;;;;;;28.50;60.82;100116.81;1717524;83;20936;-43
2022/08/02 09:06:56;;;;;;;10.50;6.30;;;;;;;28.68;61.79;100116.81;1717540;83;20991;-44
2022/08/02 09:09:24;;;;;;;15.72;6.28;;;;;;;28.85;59.11;100121.44;1717774;83;21869;-44
2022/08/02 09:11:51;;;;;;;9.35;6.85;;;;;;;29.08;58.90;100115.93;1717425;83;21051;-44
2022/08/02 09:14:28;;;;;;;12.98;6.20;;;;;;;28.90;56.45;100119.95;1717424;82;21031;-43
2022/08/02 09:17:07;;;;;;;25.02;6.75;;;;;;;28.79;59.31;100117.05;1717425;83;20908;-44
2022/08/02 09:19:35;;;;;;;30.43;7.20;;;;;;;28.85;59.36;100111.61;1717761;83;21536;-44
2022/08/02 09:22:06;;;;;;;20.32;6.53;;;;;;;29.11;61.05;100109.44;1717645;83;21154;-44
2022/08/02 09:24:49;;;;;;;7.22;5.83;;;;;;;29.57;58.78;100109.20;1717719;83;20978;-44
2022/08/02 09:27:19;;;;;;;18.12;6.53;;;;;;;29.66;56.68;100107.36;1717529;83;20955;-44
2022/08/02 09:29:51;;;;;;;26.35;6.37;;;;;;;29.78;57.42;100110.08;1717594;83;20975;-44
2022/08/02 09:32:18;;;;;;;18.67;6.37;;;;;;;29.74;58.08;100111.89;1717509;83;20975;-43
2022/08/02 09:34:51;;;;;;;23.77;7.20;;;;;;;29.80;55.61;100106.75;1717569;83;21302;-43
2022/08/02 09:37:26;;;;;;;18.82;7.65;;;;;;;30.01;55.22;100107.28;1717052;83;21003;-44
2022/08/02 09:39:54;;;;;;;22.05;8.15;;;;;;;30.34;58.33;100110.86;1717526;83;20900;-43
2022/08/02 09:42:21;;;;;;;9.18;5.87;;;;;;;30.82;57.66;100107.03;1717419;83;20967;-43
2022/08/02 09:44:59;;;;;;;12.93;6.50;;;;;;;31.24;54.88;100105.11;1717349;83;21524;-43
2022/08/02 09:47:27;;;;;;;6.37;5.78;;;;;;;31.60;53.94;100110.47;1717908;83;21227;-44
2022/08/02 09:49:55;;;;;;;13.08;5.58;;;;;;;32.00;53.27;100105.09;1717451;83;20968;-43
2022/08/02 09:52:25;;;;;;;8.68;5.67;;;;;;;32.25;50.04;100103.56;1717652;83;21497;-42
2022/08/02 09:54:52;;;;;;;18.05;6.60;;;;;;;32.37;50.41;100107.50;1717477;83;21469;-43
2022/08/02 09:57:27;;;;;;;9.55;5.78;;;;;;;32.38;48.46;100111.84;1717535;83;20928;-43
2022/08/02 09:59:56;;;;;;;8.98;5.20;;;;;;;32.29;49.23;100114.23;1717597;83;21270;-44
2022/08/02 10:02:23;;;;;;;6.12;4.95;;;;;;;32.37;47.98;100109.36;1717448;83;21003;-44
2022/08/02 10:04:50;;;;;;;8.43;5.45;;;;;;;32.39;49.15;100114.84;1717330;83;20988;-44
2022/08/02 10:07:17;;;;;;;9.28;5.45;;;;;;;32.51;49.00;100112.56;1689364;83;21551;-44
2022/08/02 10:09:45;;;;;;;11.70;5.03;;;;;;;32.60;48.13;100119.20;1717561;83;20912;-44
2022/08/02 10:12:13;;;;;;;9.38;5.70;;;;;;;32.61;49.35;100120.34;1717462;83;21192;-44
2022/08/02 10:14:42;;;;;;;6.50;5.78;;;;;;;32.66;48.29;100123.83;1717447;82;20987;-44
2022/08/02 10:17:09;;;;;;;7.62;5.22;;;;;;;32.75;48.08;100120.57;1717629;83;20963;-44
2022/08/02 10:19:36;;;;;;;6.12;5.62;;;;;;;32.81;46.90;100123.85;1717477;83;20943;-44
2022/08/02 10:22:10;;;;;;;5.40;4.90;;;;;;;32.77;46.59;100121.22;1717393;83;20982;-44
2022/08/02 10:24:39;;;;;;;5.58;5.05;;;;;;;32.56;44.28;100120.06;1717795;83;21236;-45
2022/08/02 10:27:08;;;;;;;7.22;4.85;;;;;;;32.04;46.86;100121.11;1717441;83;20987;-44
2022/08/02 10:29:37;;;;;;;18.25;5.58;;;;;;;31.68;47.86;100118.44;1717495;83;20889;-44
2022/08/02 10:32:08;;;;;;;13.55;5.42;;;;;;;31.50;48.92;100118.70;1717626;83;21556;-44
2022/08/02 10:34:49;;;;;;;12.53;5.03;;;;;;;31.43;48.35;100116.38;1717540;83;21529;-44
2022/08/02 10:37:16;;;;;;;26.68;6.17;;;;;;;31.31;49.55;100115.92;1717237;83;21962;-44
2022/08/02 10:39:45;;;;;;;19.95;5.53;;;;;;;31.14;49.21;100112.44;1717432;83;20978;-44
2022/08/02 10:42:12;;;;;;;7.47;4.80;;;;;;;31.05;49.13;100116.16;1689484;83;20955;-44
2022/08/02 10:44:40;;;;;;;15.20;3.92;;;;;;;30.95;51.37;100122.53;1722044;83;20900;-44
2022/08/02 10:47:24;;;;;;;11.73;4.60;;;;;;;31.01;50.25;100121.52;1723045;83;20963;-44
2022/08/02 10:49:59;;;;;;;9.65;4.67;;;;;;;31.10;50.62;100113.30;1722852;83;21262;-44
2022/08/02 10:52:30;;;;;;;10.27;5.10;;;;;;;31.31;50.28;100117.25;1722077;83;21534;-44
2022/08/02 10:55:04;;;;;;;16.05;5.20;;;;;;;31.61;49.21;100120.16;1722882;83;20947;-44
2022/08/02 10:57:33;;;;;;;4.65;4.35;;;;;;;31.75;49.23;100119.92;1722206;83;20971;-44
2022/08/02 11:00:13;;;;;;;8.85;4.60;;;;;;;31.79;49.75;100114.57;1723125;83;21055;-44
2022/08/02 11:02:46;;;;;;;6.78;3.90;;;;;;;31.75;49.12;100119.07;1696329;83;21228;-45
2022/08/02 11:05:31;;;;;;;9.30;4.78;;;;;;;31.67;48.02;100119.94;1722648;83;20963;-44
2022/08/02 11:07:59;;;;;;;27.27;5.60;;;;;;;31.80;47.88;100111.37;1722934;83;20981;-44
2022/08/02 11:10:37;;;;;;;51.70;7.30;;;;;;;31.92;48.99;100108.64;1672679;83;20981;-44
2022/08/02 11:13:13;;;;;;;18.30;5.37;;;;;;;32.02;49.37;100104.89;1722713;83;21006;-43
2022/08/02 11:16:03;;;;;;;23.73;5.25;;;;;;;32.14;48.56;100112.84;1722649;81;21923;-43
2022/08/02 11:18:45;;;;;;;9.48;4.60;;;;;;;32.02;46.82;100114.25;1722727;83;21031;-44
2022/08/02 11:21:34;;;;;;;59.40;7.12;;;;;;;31.98;47.22;100103.09;1700556;83;20896;-44
2022/08/02 11:24:25;;;;;;;33.53;5.55;;;;;;;32.10;48.02;100105.67;1722598;83;20927;-43
2022/08/02 11:26:52;;;;;;;23.40;4.60;;;;;;;32.24;48.06;100101.91;1722737;83;21510;-43
2022/08/02 11:29:19;;;;;;;8.18;4.33;;;;;;;32.28;46.27;100096.52;1722789;83;22185;-44
2022/08/02 11:31:46;;;;;;;13.55;4.72;;;;;;;32.23;45.80;100101.05;1722804;83;20923;-43